Terminal Aerodrome Forecast
Issued by NWS

Home | Current Version | Previous Version | Text Only | Print | Product List | Glossary Off
Versions: 1 2 3 4 5 6 7 8 9 10 11 12 13 14 15 16 17 18 19 20

000
FTUS43 KICT 270725 AAA
TAFCNU
TAF AMD
KCNU 270725Z 2707/2806 18005KT 5SM BR FEW060 SCT250
      TEMPO 2707/2710 1SM BR
     FM271000 18006KT P6SM VCTS SCT060CB BKN090
     FM271400 12005KT P6SM SCT030
     FM271800 15008KT P6SM SCT040=

USA.gov is the U.S. government's official web portal to all federal, state and local government web resources and services.